createdAt,value
2023-04-07T00:00:40.125Z,20.20
2023-04-07T00:03:23.876Z,16.00
2023-04-07T00:05:56.108Z,16.60
2023-04-07T00:08:28.225Z,17.60
2023-04-07T00:11:00.407Z,16.40
2023-04-07T00:13:32.580Z,15.50
2023-04-07T00:16:04.761Z,16.70
2023-04-07T00:18:37.005Z,18.90
2023-04-07T00:21:09.411Z,17.10
2023-04-07T00:23:42.956Z,15.20
2023-04-07T00:26:15.211Z,17.60
2023-04-07T00:28:47.465Z,23.80
2023-04-07T00:31:19.708Z,17.50
2023-04-07T00:33:51.972Z,17.70
2023-04-07T00:36:24.617Z,20.50
2023-04-07T00:38:56.829Z,17.90
2023-04-07T00:41:28.987Z,18.70
2023-04-07T00:44:01.128Z,20.50
2023-04-07T00:46:33.458Z,17.30
2023-04-07T00:49:05.787Z,17.50
2023-04-07T00:51:38.030Z,19.90
2023-04-07T00:54:10.390Z,19.20
2023-04-07T00:56:43.707Z,21.30
2023-04-07T00:59:16.312Z,22.60
2023-04-07T01:01:55.331Z,22.10
2023-04-07T01:04:34.269Z,20.00
2023-04-07T01:07:12.667Z,18.70
2023-04-07T01:09:55.464Z,16.50
2023-04-07T01:12:35.942Z,18.10
2023-04-07T01:15:12.425Z,19.20
2023-04-07T01:17:50.803Z,20.60
2023-04-07T01:20:28.142Z,18.20
2023-04-07T01:23:08.942Z,16.80
2023-04-07T01:26:02.242Z,19.20
2023-04-07T01:29:05.695Z,18.30
2023-04-07T01:31:41.311Z,20.20
2023-04-07T01:34:15.613Z,22.10
2023-04-07T01:36:50.288Z,19.80
2023-04-07T01:39:23.083Z,20.10
2023-04-07T01:41:58.150Z,19.50
2023-04-07T01:44:31.402Z,21.10
2023-04-07T01:47:04.576Z,19.80
2023-04-07T01:49:39.317Z,17.60
2023-04-07T01:52:12.978Z,15.50
2023-04-07T01:54:46.510Z,13.50
2023-04-07T01:57:18.796Z,15.40
2023-04-07T01:59:51.497Z,17.60
2023-04-07T02:02:25.259Z,16.50
2023-04-07T02:05:00.327Z,18.80
2023-04-07T02:10:13.171Z,17.10
2023-04-07T02:12:47.453Z,21.00
2023-04-07T02:15:23.376Z,18.80
2023-04-07T02:17:57.879Z,19.90
2023-04-07T02:20:31.881Z,17.60
2023-04-07T02:23:04.399Z,20.10
2023-04-07T02:25:38.354Z,17.10
2023-04-07T02:28:10.540Z,16.30
2023-04-07T02:30:42.851Z,17.20
2023-04-07T02:33:14.984Z,15.50
2023-04-07T02:35:48.542Z,20.90
2023-04-07T02:38:20.621Z,20.60
2023-04-07T02:40:52.708Z,17.50
2023-04-07T02:43:27.200Z,17.60
2023-04-07T02:45:59.349Z,16.90
2023-04-07T02:48:31.626Z,19.20
2023-04-07T02:51:03.811Z,19.90
2023-04-07T02:53:35.986Z,18.80
2023-04-07T02:56:09.593Z,15.80
2023-04-07T02:58:41.961Z,19.50
2023-04-07T03:01:15.051Z,14.60
2023-04-07T03:03:48.087Z,15.20
2023-04-07T03:06:28.973Z,16.90
2023-04-07T03:09:15.445Z,18.00
2023-04-07T03:11:47.657Z,16.90
2023-04-07T03:14:19.976Z,16.80
2023-04-07T03:16:53.314Z,19.20
2023-04-07T03:19:27.408Z,21.00
2023-04-07T03:21:59.674Z,19.30
2023-04-07T03:24:31.830Z,18.70
2023-04-07T03:27:05.410Z,15.60
2023-04-07T03:29:51.368Z,16.80
2023-04-07T03:32:23.875Z,18.70
2023-04-07T03:34:56.553Z,17.50
2023-04-07T03:37:28.790Z,19.70
2023-04-07T03:40:01.404Z,17.50
2023-04-07T03:42:37.138Z,15.20
2023-04-07T03:45:13.120Z,16.60
2023-04-07T03:47:49.050Z,18.20
2023-04-07T03:50:22.073Z,21.00
2023-04-07T03:52:59.998Z,22.00
2023-04-07T03:55:35.158Z,20.80
2023-04-07T03:58:13.522Z,18.50
2023-04-07T04:00:46.211Z,17.70
2023-04-07T04:03:18.499Z,18.60
2023-04-07T04:06:07.210Z,19.70
2023-04-07T04:08:39.452Z,16.90
2023-04-07T04:11:12.086Z,18.60
2023-04-07T04:13:50.140Z,20.10
2023-04-07T04:16:22.920Z,21.70
2023-04-07T04:18:56.222Z,26.50
2023-04-07T04:21:29.701Z,25.60
2023-04-07T04:24:02.135Z,28.40
2023-04-07T04:26:34.574Z,25.60
2023-04-07T04:29:10.972Z,21.10
2023-04-07T04:31:43.706Z,19.90
2023-04-07T04:34:16.498Z,26.50
2023-04-07T04:36:49.769Z,24.80
2023-04-07T04:39:22.756Z,40.80
2023-04-07T04:41:55.061Z,44.80
2023-04-07T04:44:29.377Z,58.70
2023-04-07T04:47:02.320Z,87.50
2023-04-07T04:49:36.211Z,87.80
2023-04-07T04:52:09.098Z,135.70
2023-04-07T04:54:45.941Z,148.30
2023-04-07T04:57:18.257Z,288.80
2023-04-07T04:59:50.848Z,206.10
2023-04-07T05:02:23.322Z,150.00
2023-04-07T05:04:55.823Z,123.70
2023-04-07T05:07:31.488Z,63.90
2023-04-07T05:10:03.830Z,53.20
2023-04-07T05:12:38.212Z,56.50
2023-04-07T05:15:15.287Z,54.00
2023-04-07T05:17:50.673Z,70.50
2023-04-07T05:20:27.280Z,56.20
2023-04-07T05:23:00.206Z,39.50
2023-04-07T05:25:36.934Z,39.70
2023-04-07T05:28:10.305Z,47.90
2023-04-07T05:30:43.149Z,39.10
2023-04-07T05:33:15.555Z,40.80
2023-04-07T05:38:21.091Z,42.20
2023-04-07T05:40:54.001Z,32.40
2023-04-07T05:43:30.109Z,30.30
2023-04-07T05:46:02.251Z,31.60
2023-04-07T05:48:35.691Z,30.20
2023-04-07T05:51:08.707Z,26.90
2023-04-07T05:53:40.796Z,24.10
2023-04-07T05:56:13.123Z,24.30
2023-04-07T05:58:48.883Z,27.80
2023-04-07T06:01:21.541Z,33.70
2023-04-07T06:03:53.785Z,27.80
2023-04-07T06:06:28.756Z,29.40
2023-04-07T06:09:00.952Z,26.10
2023-04-07T06:11:33.068Z,19.60
2023-04-07T06:14:05.205Z,29.80
2023-04-07T06:16:37.325Z,23.40
2023-04-07T06:19:09.813Z,22.10
2023-04-07T06:21:42.011Z,28.70
2023-04-07T06:24:14.191Z,28.80
2023-04-07T06:26:47.951Z,28.60
2023-04-07T06:29:20.160Z,31.90
2023-04-07T06:31:52.410Z,21.40
2023-04-07T06:34:24.762Z,24.60
2023-04-07T06:36:58.162Z,31.50
2023-04-07T06:39:31.841Z,20.50
2023-04-07T06:42:03.877Z,22.70
2023-04-07T06:44:37.503Z,24.50
2023-04-07T06:47:09.604Z,26.80
2023-04-07T06:49:41.797Z,27.50
2023-04-07T06:52:13.945Z,17.30
2023-04-07T06:54:46.126Z,19.60
2023-04-07T06:57:18.283Z,28.30
2023-04-07T06:59:50.584Z,23.40
2023-04-07T07:02:22.935Z,17.90
2023-04-07T07:04:55.148Z,15.10
2023-04-07T07:07:27.320Z,17.60
2023-04-07T07:09:59.482Z,18.80
2023-04-07T07:12:32.504Z,19.80
2023-04-07T07:15:04.986Z,21.40
2023-04-07T07:17:37.189Z,20.20
2023-04-07T07:20:12.011Z,19.20
2023-04-07T07:22:44.090Z,14.40
2023-04-07T07:25:16.701Z,16.90
2023-04-07T07:27:52.273Z,18.30
2023-04-07T07:30:26.298Z,20.00
2023-04-07T07:32:58.732Z,21.10
2023-04-07T07:35:32.805Z,19.80
2023-04-07T07:38:05.046Z,25.90
2023-04-07T07:40:37.210Z,24.30
2023-04-07T07:43:09.344Z,17.90
2023-04-07T07:45:41.474Z,22.80
2023-04-07T07:48:13.654Z,20.40
2023-04-07T07:50:45.955Z,25.50
2023-04-07T07:53:18.108Z,28.90
2023-04-07T07:55:50.370Z,25.30
2023-04-07T07:58:22.471Z,21.60
2023-04-07T08:00:54.875Z,32.40
2023-04-07T08:03:27.035Z,35.20
2023-04-07T08:05:59.384Z,22.20
2023-04-07T08:08:31.539Z,25.70
2023-04-07T08:11:03.886Z,21.30
2023-04-07T08:13:36.051Z,24.20
2023-04-07T08:16:08.930Z,22.40
2023-04-07T08:18:41.118Z,19.90
2023-04-07T08:21:13.197Z,17.10
2023-04-07T08:23:46.593Z,25.00
2023-04-07T08:26:18.758Z,21.30
2023-04-07T08:28:52.401Z,20.40
2023-04-07T08:31:24.600Z,17.50
2023-04-07T08:33:58.483Z,21.30
2023-04-07T08:36:31.630Z,16.20
2023-04-07T08:39:05.773Z,17.30
2023-04-07T08:41:41.002Z,18.60
2023-04-07T08:44:14.288Z,22.80
2023-04-07T08:46:48.178Z,17.30
2023-04-07T08:49:21.352Z,21.60
2023-04-07T08:51:56.088Z,20.20
2023-04-07T08:56:59.662Z,24.00
2023-04-07T08:59:33.888Z,28.00
2023-04-07T09:02:08.229Z,27.10
2023-04-07T09:04:40.575Z,22.80
2023-04-07T09:07:12.731Z,22.60
2023-04-07T09:09:44.841Z,31.00
2023-04-07T09:12:17.009Z,32.60
2023-04-07T09:14:49.080Z,25.00
2023-04-07T09:17:21.450Z,22.30
2023-04-07T09:19:54.038Z,26.10
2023-04-07T09:22:40.229Z,21.50
2023-04-07T09:25:18.648Z,24.40
2023-04-07T09:28:05.825Z,21.50
2023-04-07T09:30:37.974Z,27.40
2023-04-07T09:33:14.334Z,31.10
2023-04-07T09:35:56.199Z,30.40
2023-04-07T09:38:36.341Z,28.50
2023-04-07T09:41:13.154Z,31.40
2023-04-07T09:43:47.257Z,33.10
2023-04-07T09:46:20.245Z,50.50
2023-04-07T09:49:06.014Z,44.20
2023-04-07T09:51:38.335Z,57.20
2023-04-07T09:54:10.751Z,34.90
2023-04-07T09:56:42.920Z,31.50
2023-04-07T09:59:17.655Z,34.80
2023-04-07T10:01:50.087Z,42.40
2023-04-07T10:04:23.447Z,52.30
2023-04-07T10:06:56.499Z,55.90
2023-04-07T10:09:30.269Z,46.60
2023-04-07T10:12:03.005Z,46.30
2023-04-07T10:14:37.547Z,30.40
2023-04-07T10:17:12.390Z,44.50
2023-04-07T10:19:44.653Z,37.80
2023-04-07T10:22:18.937Z,45.70
2023-04-07T10:24:56.826Z,43.90
2023-04-07T10:27:38.341Z,60.90
2023-04-07T10:30:19.843Z,42.50
2023-04-07T10:32:54.363Z,32.30
2023-04-07T10:35:27.144Z,47.60
2023-04-07T10:38:16.826Z,42.90
2023-04-07T10:40:49.033Z,41.30
2023-04-07T10:43:41.634Z,33.20
2023-04-07T10:46:13.790Z,30.00
2023-04-07T10:49:05.964Z,33.80
2023-04-07T10:51:40.867Z,31.70
2023-04-07T10:57:10.728Z,42.50
2023-04-07T11:00:04.710Z,28.60
2023-04-07T11:02:39.627Z,26.90
2023-04-07T11:05:23.878Z,200.50
2023-04-07T11:07:58.467Z,51.10
2023-04-07T11:10:30.894Z,36.40
2023-04-07T11:13:05.635Z,33.10
2023-04-07T11:15:40.730Z,31.10
2023-04-07T11:18:16.342Z,38.30
2023-04-07T11:20:53.857Z,46.20
2023-04-07T11:23:27.506Z,42.80
2023-04-07T11:26:04.384Z,31.10
2023-04-07T11:28:37.999Z,34.20
2023-04-07T11:31:10.505Z,42.90
2023-04-07T11:33:43.709Z,40.60
2023-04-07T11:36:15.957Z,27.00
2023-04-07T11:38:48.109Z,28.40
2023-04-07T11:41:20.208Z,24.60
2023-04-07T11:44:04.594Z,26.10
2023-04-07T11:46:37.415Z,25.30
2023-04-07T11:49:14.697Z,27.10
2023-04-07T11:51:47.629Z,28.30
2023-04-07T11:54:20.066Z,61.20
2023-04-07T11:56:55.630Z,40.70
2023-04-07T11:59:29.222Z,39.90
2023-04-07T12:02:02.152Z,38.20
2023-04-07T12:04:36.665Z,30.10
2023-04-07T12:07:12.849Z,31.70
2023-04-07T12:09:44.950Z,29.70
2023-04-07T12:12:26.374Z,29.50
2023-04-07T12:14:58.891Z,36.60
2023-04-07T12:17:31.285Z,65.80
2023-04-07T12:20:03.711Z,50.00
2023-04-07T12:22:35.908Z,94.40
2023-04-07T12:25:09.281Z,53.50
2023-04-07T12:27:43.593Z,37.80
2023-04-07T12:32:47.714Z,36.80
2023-04-07T12:35:19.943Z,30.50
2023-04-07T12:37:53.076Z,25.20
2023-04-07T12:40:26.433Z,24.50
2023-04-07T12:42:59.427Z,29.30
2023-04-07T12:45:32.126Z,24.60
2023-04-07T12:48:04.408Z,39.40
2023-04-07T12:50:38.160Z,37.90
2023-04-07T12:53:10.262Z,29.70
2023-04-07T12:55:42.689Z,23.60
2023-04-07T12:58:14.925Z,29.40
2023-04-07T13:00:48.701Z,28.40
2023-04-07T13:03:21.174Z,54.10
2023-04-07T13:05:55.177Z,35.50
2023-04-07T13:08:27.377Z,35.30
2023-04-07T13:10:59.728Z,24.60
2023-04-07T13:13:31.953Z,29.10
2023-04-07T13:16:04.379Z,31.90
2023-04-07T13:18:36.798Z,30.30
2023-04-07T13:23:44.270Z,60.60
2023-04-07T13:26:16.308Z,95.90
2023-04-07T13:28:48.724Z,62.70
2023-04-07T13:31:22.197Z,45.30
2023-04-07T13:33:54.449Z,32.30
2023-04-07T13:36:28.530Z,33.40
2023-04-07T13:39:00.850Z,39.90
2023-04-07T13:41:33.105Z,36.40
2023-04-07T13:44:05.224Z,45.10
2023-04-07T13:46:38.235Z,34.60
2023-04-07T13:49:10.758Z,32.70
2023-04-07T13:51:42.860Z,30.50
2023-04-07T13:54:15.010Z,34.00
2023-04-07T13:56:49.132Z,52.30
2023-04-07T13:59:21.600Z,45.50
2023-04-07T14:01:53.802Z,46.80
2023-04-07T14:04:26.071Z,57.60
2023-04-07T14:06:58.387Z,49.40
2023-04-07T14:09:30.595Z,42.60
2023-04-07T14:12:02.690Z,48.00
2023-04-07T14:14:37.275Z,42.50
2023-04-07T14:17:09.368Z,30.00
2023-04-07T14:19:42.317Z,33.30
2023-04-07T14:22:14.983Z,28.00
2023-04-07T14:24:47.150Z,23.20
2023-04-07T14:27:21.223Z,23.80
2023-04-07T14:29:55.299Z,19.00
2023-04-07T14:32:29.618Z,17.30
2023-04-07T14:37:33.456Z,24.40
2023-04-07T14:40:06.336Z,32.30
2023-04-07T14:42:39.269Z,33.20
2023-04-07T14:45:13.964Z,30.30
2023-04-07T14:47:46.257Z,21.80
2023-04-07T14:50:18.787Z,16.90
2023-04-07T14:52:50.927Z,17.50
2023-04-07T14:55:23.329Z,18.10
2023-04-07T14:57:55.559Z,18.50
2023-04-07T15:00:28.944Z,15.50
2023-04-07T15:03:01.205Z,16.60
2023-04-07T15:05:33.755Z,26.10
2023-04-07T15:08:06.380Z,23.00
2023-04-07T15:10:40.623Z,51.20
2023-04-07T15:13:13.012Z,26.70
2023-04-07T15:15:45.163Z,25.00
2023-04-07T15:18:17.424Z,28.40
2023-04-07T15:20:49.724Z,35.00
2023-04-07T15:23:21.799Z,34.90
2023-04-07T15:25:56.346Z,36.80
2023-04-07T15:28:28.493Z,30.60
2023-04-07T15:31:00.729Z,32.90
2023-04-07T15:33:32.820Z,37.70
2023-04-07T15:36:05.267Z,33.10
2023-04-07T15:38:38.936Z,43.70
2023-04-07T15:41:10.986Z,43.60
2023-04-07T15:43:43.167Z,33.00
2023-04-07T15:46:15.505Z,32.30
2023-04-07T15:48:48.119Z,23.00
2023-04-07T15:51:20.407Z,18.10
2023-04-07T15:53:52.634Z,20.20
2023-04-07T15:56:25.097Z,15.20
2023-04-07T15:58:57.130Z,13.70
2023-04-07T16:01:29.998Z,11.90
2023-04-07T16:04:02.610Z,11.00
2023-04-07T16:06:34.884Z,13.60
2023-04-07T16:09:07.322Z,13.30
2023-04-07T16:11:39.583Z,13.80
2023-04-07T16:14:11.741Z,14.00
2023-04-07T16:16:44.781Z,25.40
2023-04-07T16:19:17.425Z,36.10
2023-04-07T16:21:49.571Z,40.20
2023-04-07T16:24:21.756Z,32.40
2023-04-07T16:26:55.979Z,29.40
2023-04-07T16:29:28.334Z,41.50
2023-04-07T16:32:00.666Z,41.80
2023-04-07T16:34:33.002Z,31.00
2023-04-07T16:37:05.236Z,42.50
2023-04-07T16:39:37.355Z,25.90
2023-04-07T16:42:09.498Z,28.30
2023-04-07T16:44:41.554Z,26.60
2023-04-07T16:47:13.665Z,31.40
2023-04-07T16:49:46.028Z,22.10
2023-04-07T16:52:20.408Z,15.70
2023-04-07T16:54:52.728Z,19.50
2023-04-07T16:57:25.506Z,17.50
2023-04-07T16:59:57.646Z,15.30
2023-04-07T17:02:29.841Z,16.60
2023-04-07T17:05:02.013Z,15.60
2023-04-07T17:07:34.172Z,16.40
2023-04-07T17:10:06.938Z,17.60
2023-04-07T17:12:38.939Z,18.60
2023-04-07T17:15:13.696Z,17.60
2023-04-07T17:20:18.694Z,21.20
2023-04-07T17:22:51.356Z,17.60
2023-04-07T17:25:23.478Z,32.60
2023-04-07T17:27:56.166Z,25.10
2023-04-07T17:30:28.505Z,20.00
2023-04-07T17:33:00.698Z,20.00
2023-04-07T17:35:32.969Z,17.70
2023-04-07T17:38:05.652Z,29.70
2023-04-07T17:40:37.731Z,43.60
2023-04-07T17:43:09.905Z,47.50
2023-04-07T17:45:41.997Z,43.60
2023-04-07T17:48:14.295Z,49.60
2023-04-07T17:50:46.926Z,61.60
2023-04-07T17:53:20.044Z,80.40
2023-04-07T17:55:52.197Z,93.10
2023-04-07T17:58:24.342Z,67.30
2023-04-07T18:00:56.581Z,57.90
2023-04-07T18:03:28.920Z,57.20
2023-04-07T18:06:01.326Z,50.50
2023-04-07T18:08:33.712Z,47.40
2023-04-07T18:11:07.182Z,47.10
2023-04-07T18:13:39.366Z,50.00
2023-04-07T18:16:13.388Z,127.00
2023-04-07T18:18:46.496Z,71.40
2023-04-07T18:21:18.670Z,54.00
2023-04-07T18:23:51.041Z,36.10
2023-04-07T18:26:23.768Z,30.80
2023-04-07T18:28:55.912Z,40.50
2023-04-07T18:31:28.051Z,42.50
2023-04-07T18:34:00.167Z,33.40
2023-04-07T18:36:32.329Z,38.90
2023-04-07T18:39:04.819Z,33.70
2023-04-07T18:41:36.944Z,45.80
2023-04-07T18:44:09.078Z,57.30
2023-04-07T18:46:41.580Z,67.60
2023-04-07T18:49:13.835Z,73.70
2023-04-07T18:51:46.987Z,80.10
2023-04-07T18:54:19.104Z,79.30
2023-04-07T18:56:51.659Z,71.60
2023-04-07T18:59:23.760Z,59.30
2023-04-07T19:01:56.801Z,53.80
2023-04-07T19:04:29.184Z,57.40
2023-04-07T19:07:01.244Z,90.30
2023-04-07T19:09:33.688Z,94.90
2023-04-07T19:12:07.430Z,66.60
2023-04-07T19:14:39.477Z,54.00
2023-04-07T19:17:12.782Z,133.70
2023-04-07T19:19:44.951Z,153.80
2023-04-07T19:22:17.742Z,139.50
2023-04-07T19:24:49.870Z,121.70
2023-04-07T19:27:22.860Z,88.70
2023-04-07T19:29:55.009Z,97.90
2023-04-07T19:32:27.408Z,102.70
2023-04-07T19:34:59.506Z,89.30
2023-04-07T19:37:31.605Z,99.80
2023-04-07T19:40:05.270Z,84.20
2023-04-07T19:42:39.314Z,95.80
2023-04-07T19:45:12.916Z,144.90
2023-04-07T19:47:45.321Z,187.90
2023-04-07T19:50:17.792Z,155.00
2023-04-07T19:52:50.826Z,94.90
2023-04-07T19:55:23.502Z,52.10
2023-04-07T19:57:55.607Z,69.30
2023-04-07T20:00:31.056Z,70.30
2023-04-07T20:03:04.723Z,93.80
2023-04-07T20:05:38.380Z,79.00
2023-04-07T20:08:10.756Z,94.80
2023-04-07T20:10:42.895Z,49.40
2023-04-07T20:13:15.080Z,77.20
2023-04-07T20:15:49.150Z,95.00
2023-04-07T20:18:21.550Z,73.60
2023-04-07T20:21:01.315Z,77.10
2023-04-07T20:23:33.757Z,71.10
2023-04-07T20:26:07.097Z,67.50
2023-04-07T20:28:39.295Z,105.20
2023-04-07T20:31:11.545Z,81.80
2023-04-07T20:33:43.896Z,69.60
2023-04-07T20:36:16.271Z,62.40
2023-04-07T20:38:49.841Z,50.40
2023-04-07T20:41:23.807Z,58.20
2023-04-07T20:43:56.014Z,49.10
2023-04-07T20:46:30.037Z,39.30
2023-04-07T20:49:02.284Z,42.20
2023-04-07T20:51:35.086Z,39.30
2023-04-07T20:54:07.941Z,34.90
2023-04-07T20:56:40.104Z,38.40
2023-04-07T20:59:12.216Z,41.90
2023-04-07T21:01:44.778Z,72.60
2023-04-07T21:04:17.176Z,52.00
2023-04-07T21:06:49.355Z,44.30
2023-04-07T21:09:21.554Z,42.40
2023-04-07T21:11:53.877Z,43.40
2023-04-07T21:14:25.974Z,42.40
2023-04-07T21:16:58.120Z,31.10
2023-04-07T21:19:30.738Z,32.90
2023-04-07T21:22:02.875Z,39.00
2023-04-07T21:24:35.513Z,47.20
2023-04-07T21:27:07.923Z,43.70
2023-04-07T21:29:42.486Z,50.00
2023-04-07T21:32:17.700Z,50.40
2023-04-07T21:34:52.680Z,48.50
2023-04-07T21:37:25.028Z,45.50
2023-04-07T21:39:58.033Z,37.00
2023-04-07T21:42:30.314Z,30.30
2023-04-07T21:45:02.454Z,28.70
2023-04-07T21:47:34.572Z,30.90
2023-04-07T21:50:08.719Z,28.00
2023-04-07T21:52:42.780Z,29.20
2023-04-07T21:55:15.201Z,22.70
2023-04-07T21:57:47.988Z,25.90
2023-04-07T22:00:20.569Z,19.50
2023-04-07T22:02:53.376Z,20.80
2023-04-07T22:05:26.032Z,26.10
2023-04-07T22:07:58.662Z,24.70
2023-04-07T22:10:31.080Z,29.70
2023-04-07T22:13:03.819Z,30.30
2023-04-07T22:15:36.406Z,40.10
2023-04-07T22:18:08.741Z,54.90
2023-04-07T22:20:41.493Z,94.10
2023-04-07T22:23:13.986Z,92.30
2023-04-07T22:25:46.110Z,104.80
2023-04-07T22:28:18.394Z,60.70
2023-04-07T22:30:50.516Z,53.80
2023-04-07T22:33:22.651Z,51.50
2023-04-07T22:35:54.765Z,47.90
2023-04-07T22:38:27.169Z,68.30
2023-04-07T22:40:59.398Z,56.70
2023-04-07T22:43:31.644Z,53.80
2023-04-07T22:46:03.706Z,39.90
2023-04-07T22:48:36.025Z,37.20
2023-04-07T22:51:08.281Z,42.00
2023-04-07T22:53:40.916Z,45.50
2023-04-07T22:56:13.550Z,55.70
2023-04-07T22:58:45.680Z,50.00
2023-04-07T23:01:18.166Z,42.10
2023-04-07T23:03:50.609Z,32.70
2023-04-07T23:06:22.968Z,24.10
2023-04-07T23:08:55.095Z,44.80
2023-04-07T23:11:27.435Z,40.00
2023-04-07T23:13:59.784Z,33.90
2023-04-07T23:16:31.948Z,30.90
2023-04-07T23:19:04.150Z,32.70
2023-04-07T23:21:36.154Z,28.10
2023-04-07T23:24:08.381Z,23.80
2023-04-07T23:26:40.539Z,22.90
2023-04-07T23:29:12.913Z,20.00
2023-04-07T23:31:44.992Z,21.30
2023-04-07T23:34:17.122Z,22.00
2023-04-07T23:36:49.298Z,25.90
2023-04-07T23:39:21.430Z,28.40
2023-04-07T23:41:53.539Z,26.40
2023-04-07T23:44:25.840Z,25.60
2023-04-07T23:46:57.893Z,39.80
2023-04-07T23:49:29.940Z,32.60
2023-04-07T23:52:02.632Z,26.40
2023-04-07T23:54:34.801Z,38.60
2023-04-07T23:57:06.949Z,40.90
2023-04-07T23:59:39.127Z,43.70
